Time;durP1;ratioP1;P1;durP2;ratioP2;P2;SDS_P1;SDS_P2;PMS_P1;PMS_P2;Temp;Humidity;BMP_temperature;BMP_pressure;BME280_temperature;BME280_humidity;BME280_pressure;Samples;Min_cycle;Max_cycle;Signal;HPM_P1;HPM_P2
2021/12/06 00:00:25;;;;;;;3.50;2.83;;;11.40;62.00;;;;;;5015307;28;20040;-71
2021/12/06 00:02:55;;;;;;;4.80;3.20;;;11.40;61.90;;;;;;5015374;28;20113;-72
2021/12/06 00:05:24;;;;;;;4.47;2.80;;;11.40;62.00;;;;;;5000133;28;20187;-71
2021/12/06 00:07:50;;;;;;;4.18;2.92;;;11.40;62.00;;;;;;4999710;28;20033;-70
2021/12/06 00:10:16;;;;;;;3.97;3.05;;;11.40;61.90;;;;;;4999982;28;20026;-71
2021/12/06 00:12:43;;;;;;;4.30;3.10;;;11.40;62.00;;;;;;4998667;28;20018;-72
2021/12/06 00:15:10;;;;;;;4.07;3.17;;;11.40;62.00;;;;;;4999999;28;20029;-72
2021/12/06 00:17:37;;;;;;;3.97;3.28;;;11.40;62.00;;;;;;4999941;28;20014;-72
2021/12/06 00:20:06;;;;;;;3.63;2.72;;;11.40;62.00;;;;;;4999872;28;20037;-72
2021/12/06 00:22:32;;;;;;;3.78;3.20;;;11.40;62.00;;;;;;4998568;28;20060;-72
2021/12/06 00:24:58;;;;;;;2.85;2.55;;;11.40;62.00;;;;;;4999962;28;20050;-71
2021/12/06 00:27:25;;;;;;;3.83;2.80;;;11.40;61.90;;;;;;4999853;28;20022;-73
2021/12/06 00:29:52;;;;;;;4.05;3.03;;;11.40;61.90;;;;;;4999896;28;20027;-71
2021/12/06 00:32:18;;;;;;;3.20;2.85;;;11.40;62.00;;;;;;5015009;28;20056;-72
2021/12/06 00:34:44;;;;;;;3.90;2.92;;;11.40;62.00;;;;;;5014912;28;20277;-71
2021/12/06 00:37:21;;;;;;;3.45;2.90;;;11.40;62.00;;;;;;4998609;28;20030;-71
2021/12/06 00:39:59;;;;;;;3.30;2.75;;;11.40;61.90;;;;;;4999790;28;20022;-71
2021/12/06 00:42:28;;;;;;;4.10;2.92;;;11.40;62.00;;;;;;5003624;28;20036;-71
2021/12/06 00:44:54;;;;;;;3.45;3.05;;;11.40;62.00;;;;;;5003694;28;20041;-72
2021/12/06 00:47:20;;;;;;;4.68;2.97;;;11.40;62.00;;;;;;5018802;28;20026;-72
2021/12/06 00:49:47;;;;;;;3.53;3.10;;;11.40;62.10;;;;;;5003680;28;20061;-71
2021/12/06 00:52:14;;;;;;;3.60;2.67;;;11.40;62.00;;;;;;5003544;28;20085;-71
2021/12/06 00:54:41;;;;;;;3.75;3.05;;;11.40;62.00;;;;;;5003354;28;20513;-70
2021/12/06 00:57:09;;;;;;;3.75;3.03;;;11.50;62.00;;;;;;5003453;28;20108;-71
2021/12/06 00:59:36;;;;;;;3.70;3.13;;;11.50;62.00;;;;;;5003467;28;20031;-71
2021/12/06 01:02:02;;;;;;;3.78;2.80;;;11.40;61.90;;;;;;5003242;28;20037;-70
2021/12/06 01:04:31;;;;;;;4.25;3.30;;;11.40;62.00;;;;;;5003397;28;20019;-72
2021/12/06 01:06:57;;;;;;;4.63;2.95;;;11.40;62.00;;;;;;5003213;28;20019;-72
2021/12/06 01:09:23;;;;;;;3.80;2.80;;;11.40;62.00;;;;;;5003152;28;20033;-71
2021/12/06 01:11:50;;;;;;;4.00;2.72;;;11.40;61.90;;;;;;5003140;28;20360;-71
2021/12/06 01:14:17;;;;;;;3.85;3.08;;;11.40;61.90;;;;;;5003170;28;20028;-71
2021/12/06 01:16:43;;;;;;;3.53;3.13;;;11.40;61.90;;;;;;5003079;28;20093;-72
2021/12/06 01:19:09;;;;;;;3.95;3.28;;;11.40;62.00;;;;;;5003054;28;20081;-71
2021/12/06 01:24:11;;;;;;;3.80;2.80;;;11.40;62.00;;;;;;5003295;28;20332;-71
2021/12/06 01:32:18;;;;;;;3.50;2.75;;;11.40;62.00;;;;;;5002832;28;20022;-71
2021/12/06 01:40:12;;;;;;;2.78;2.53;;;11.50;62.00;;;;;;5002664;28;20082;-72
2021/12/06 01:42:38;;;;;;;3.28;2.90;;;11.40;62.00;;;;;;5002579;28;20030;-71
2021/12/06 01:45:07;;;;;;;3.58;2.72;;;11.40;62.00;;;;;;5002563;28;20030;-73
2021/12/06 01:47:35;;;;;;;4.22;2.97;;;11.40;62.10;;;;;;5002567;28;20029;-73
2021/12/06 01:50:28;;;;;;;4.97;3.33;;;11.40;62.00;;;;;;5002538;28;20081;-72
2021/12/06 01:52:57;;;;;;;3.33;2.90;;;11.40;62.00;;;;;;5000670;28;20038;-71
2021/12/06 01:55:27;;;;;;;4.00;2.80;;;11.40;62.00;;;;;;5002393;28;20452;-71
2021/12/06 01:57:53;;;;;;;3.90;3.22;;;11.40;62.10;;;;;;5002341;28;20038;-72
2021/12/06 02:00:22;;;;;;;3.60;2.72;;;11.40;62.10;;;;;;5001122;28;20349;-71
2021/12/06 02:02:48;;;;;;;;;;;11.40;62.10;;;;;;5002649;28;20026;-72
2021/12/06 02:05:14;;;;;;;4.53;3.10;;;11.40;62.00;;;;;;5002219;28;20109;-72
2021/12/06 02:07:40;;;;;;;4.15;3.20;;;11.40;62.00;;;;;;5002143;28;20025;-73
2021/12/06 02:10:08;;;;;;;3.67;2.85;;;11.40;62.00;;;;;;5002217;28;20350;-72
2021/12/06 02:12:34;;;;;;;3.20;2.90;;;11.40;62.00;;;;;;5002030;28;20030;-71
2021/12/06 02:15:14;;;;;;;3.53;2.88;;;11.40;62.00;;;;;;5002020;28;20058;-71
2021/12/06 02:17:43;;;;;;;4.88;3.03;;;11.40;62.00;;;;;;5001047;28;20330;-72
2021/12/06 02:20:24;;;;;;;3.60;3.03;;;11.40;62.00;;;;;;5001927;28;20030;-71
2021/12/06 02:22:50;;;;;;;3.40;2.65;;;11.40;62.00;;;;;;5001877;28;20030;-72
2021/12/06 02:25:19;;;;;;;3.33;2.55;;;11.40;62.00;;;;;;5001914;28;20365;-71
2021/12/06 02:27:46;;;;;;;3.25;2.65;;;11.40;62.10;;;;;;5001826;28;20085;-72
2021/12/06 02:30:13;;;;;;;3.50;2.90;;;11.40;62.10;;;;;;5001786;28;20065;-72
2021/12/06 02:32:39;;;;;;;3.38;2.30;;;11.40;62.10;;;;;;5001751;28;20030;-72
2021/12/06 02:35:09;;;;;;;2.63;2.42;;;11.40;62.10;;;;;;5001674;28;20385;-72
2021/12/06 02:37:35;;;;;;;4.15;3.08;;;11.40;62.10;;;;;;5016809;28;20576;-71
2021/12/06 02:40:09;;;;;;;5.15;3.55;;;11.40;62.20;;;;;;5001616;28;20025;-72
2021/12/06 02:42:35;;;;;;;3.25;2.70;;;11.40;62.10;;;;;;5016627;28;20089;-73
2021/12/06 02:45:03;;;;;;;3.63;2.90;;;11.40;62.00;;;;;;5016564;28;20441;-72
2021/12/06 02:47:28;;;;;;;3.17;2.60;;;11.40;62.00;;;;;;5001533;28;20032;-72
2021/12/06 02:49:54;;;;;;;3.30;2.70;;;11.40;62.00;;;;;;5001426;28;20018;-72
2021/12/06 02:52:20;;;;;;;4.25;3.25;;;11.40;62.00;;;;;;5000119;28;20036;-72
2021/12/06 02:54:54;;;;;;;3.08;2.75;;;11.40;62.00;;;;;;5001185;28;20058;-71
2021/12/06 02:57:21;;;;;;;3.20;2.90;;;11.40;61.90;;;;;;5001270;28;20142;-72
2021/12/06 02:59:48;;;;;;;4.75;2.65;;;11.40;62.00;;;;;;5001237;28;20049;-72
2021/12/06 03:02:20;;;;;;;4.05;3.08;;;11.40;62.00;;;;;;5001112;28;20045;-72
2021/12/06 03:04:47;;;;;;;4.35;3.05;;;11.40;62.00;;;;;;5015098;28;20060;-72
2021/12/06 03:07:15;;;;;;;3.10;2.75;;;11.40;62.10;;;;;;5001077;28;20022;-72
2021/12/06 03:09:41;;;;;;;2.95;2.53;;;11.40;62.10;;;;;;5016100;28;20069;-72
2021/12/06 03:12:10;;;;;;;4.43;3.33;;;11.40;62.10;;;;;;5000950;28;20027;-71
2021/12/06 03:14:45;;;;;;;2.78;2.47;;;11.40;62.20;;;;;;5000975;28;20030;-71
2021/12/06 03:17:14;;;;;;;5.75;3.97;;;11.40;62.20;;;;;;5000949;28;20030;-71
2021/12/06 03:19:41;;;;;;;3.97;2.95;;;11.40;62.10;;;;;;5000842;28;20033;-71
2021/12/06 03:22:09;;;;;;;2.80;2.50;;;11.40;62.10;;;;;;5000723;28;20321;-71
2021/12/06 03:24:36;;;;;;;3.17;2.80;;;11.40;62.00;;;;;;5000822;28;20029;-71
2021/12/06 03:27:02;;;;;;;3.95;2.92;;;11.40;62.00;;;;;;5000747;28;20018;-70
2021/12/06 03:29:29;;;;;;;3.75;2.88;;;11.40;62.10;;;;;;5000625;28;20086;-71
2021/12/06 03:31:55;;;;;;;2.92;2.63;;;11.40;62.00;;;;;;4999429;28;20056;-71
2021/12/06 03:34:26;;;;;;;2.90;2.45;;;11.40;62.10;;;;;;5000643;28;20057;-72
2021/12/06 03:36:53;;;;;;;3.83;2.88;;;11.40;62.10;;;;;;4999408;28;20209;-72
2021/12/06 03:39:26;;;;;;;4.05;2.92;;;11.40;62.10;;;;;;5000539;28;20053;-72
2021/12/06 03:41:55;;;;;;;4.30;3.20;;;11.40;62.10;;;;;;5000455;28;20033;-71
2021/12/06 03:44:20;;;;;;;;;;;11.40;62.20;;;;;;5015955;28;20034;-71
2021/12/06 03:46:48;;;;;;;3.60;3.05;;;11.40;62.20;;;;;;5015525;28;19972;-72
2021/12/06 03:49:15;;;;;;;3.42;2.60;;;11.40;62.80;;;;;;5000289;28;20044;-72
2021/12/06 03:51:43;;;;;;;3.78;2.75;;;11.40;62.10;;;;;;5015360;28;20029;-71
2021/12/06 03:54:12;;;;;;;4.20;2.60;;;11.40;62.10;;;;;;5015288;28;20062;-72
2021/12/06 03:56:41;;;;;;;3.70;3.13;;;11.40;62.00;;;;;;5000136;28;20349;-71
2021/12/06 03:59:07;;;;;;;;;;;11.40;62.10;;;;;;5000697;28;20060;-72
2021/12/06 04:01:33;;;;;;;3.45;2.72;;;11.40;62.00;;;;;;5000094;28;19960;-71
2021/12/06 04:04:01;;;;;;;3.92;2.90;;;11.40;62.00;;;;;;5000195;28;20098;-71
2021/12/06 04:06:28;;;;;;;3.05;2.75;;;11.40;62.00;;;;;;5000135;28;20076;-72
2021/12/06 04:08:53;;;;;;;3.47;2.70;;;11.40;62.00;;;;;;5000044;28;20015;-71
2021/12/06 04:11:19;;;;;;;3.83;2.85;;;11.40;62.00;;;;;;5000067;28;20114;-71
2021/12/06 04:13:45;;;;;;;3.10;2.42;;;11.40;62.00;;;;;;5000013;28;20088;-72
2021/12/06 04:16:11;;;;;;;4.03;2.72;;;11.40;62.00;;;;;;4999706;28;20031;-71
2021/12/06 04:18:37;;;;;;;3.72;2.80;;;11.40;62.10;;;;;;4999926;28;20018;-72
2021/12/06 04:21:04;;;;;;;2.63;2.42;;;11.40;62.10;;;;;;4998666;28;20049;-72
2021/12/06 04:23:33;;;;;;;3.55;2.88;;;11.30;62.10;;;;;;4999962;28;20026;-72
2021/12/06 04:25:59;;;;;;;4.38;3.20;;;11.30;62.10;;;;;;5000040;28;20026;-72
2021/12/06 04:28:28;;;;;;;4.13;2.97;;;11.40;62.20;;;;;;4999873;28;20348;-72
2021/12/06 04:30:54;;;;;;;;;;;11.40;62.20;;;;;;5000311;28;20333;-72
2021/12/06 04:33:20;;;;;;;3.13;2.45;;;11.30;62.10;;;;;;4998640;28;19910;-72
2021/12/06 04:35:46;;;;;;;3.03;2.60;;;11.40;62.10;;;;;;4999844;28;20022;-71
2021/12/06 04:38:12;;;;;;;2.60;2.40;;;11.40;62.10;;;;;;5014926;28;20021;-71
2021/12/06 04:40:38;;;;;;;3.70;2.70;;;11.30;62.00;;;;;;4999792;28;20034;-71
2021/12/06 04:43:04;;;;;;;4.30;3.05;;;11.30;62.10;;;;;;4999668;28;20029;-71
2021/12/06 04:45:31;;;;;;;3.55;2.60;;;11.30;62.10;;;;;;4999736;28;20038;-72
2021/12/06 04:47:56;;;;;;;3.67;2.85;;;11.30;62.10;;;;;;4999798;28;20022;-71
2021/12/06 04:50:26;;;;;;;4.47;3.22;;;11.30;62.10;;;;;;4999706;28;20089;-71
2021/12/06 04:52:54;;;;;;;3.17;2.53;;;11.30;62.10;;;;;;4999670;28;20019;-72
2021/12/06 04:55:31;;;;;;;2.72;2.53;;;11.40;62.10;;;;;;5014570;28;20245;-71
2021/12/06 04:57:57;;;;;;;3.83;2.78;;;11.30;62.10;;;;;;4999637;28;20022;-72
2021/12/06 05:01:07;;;;;;;3.20;2.65;;;11.30;62.00;;;;;;4999631;28;20361;-72
2021/12/06 05:03:34;;;;;;;3.03;2.72;;;11.30;62.00;;;;;;4977834;28;20038;-72
2021/12/06 05:06:09;;;;;;;3.60;2.75;;;11.40;62.10;;;;;;4977890;28;20027;-71
2021/12/06 05:08:41;;;;;;;3.88;2.85;;;11.30;62.10;;;;;;4989550;28;20045;-71
2021/12/06 05:11:07;;;;;;;6.28;2.95;;;11.40;62.20;;;;;;4999578;28;20061;-71
2021/12/06 05:13:36;;;;;;;4.07;3.15;;;11.40;62.10;;;;;;4999508;28;20026;-72
2021/12/06 05:16:01;;;;;;;2.72;2.40;;;11.40;62.10;;;;;;4999515;28;20060;-72
2021/12/06 05:18:27;;;;;;;3.40;2.78;;;11.40;62.10;;;;;;4999498;28;20349;-72
2021/12/06 05:20:53;;;;;;;3.65;2.60;;;11.30;62.10;;;;;;4999462;28;20089;-71
2021/12/06 05:23:20;;;;;;;3.88;2.90;;;11.30;62.10;;;;;;4999453;28;20058;-71
2021/12/06 05:25:46;;;;;;;3.90;3.00;;;11.30;62.10;;;;;;5014534;28;20023;-71
2021/12/06 05:28:12;;;;;;;3.78;2.42;;;11.30;62.10;;;;;;5001406;28;20040;-72
2021/12/06 05:30:39;;;;;;;3.42;2.78;;;11.40;62.10;;;;;;5002959;28;20022;-73
2021/12/06 05:33:17;;;;;;;3.95;2.70;;;11.40;62.00;;;;;;5001612;28;20038;-72
2021/12/06 05:35:44;;;;;;;3.63;2.88;;;11.40;62.00;;;;;;5002849;28;20022;-72
2021/12/06 05:38:10;;;;;;;3.92;2.90;;;11.40;62.00;;;;;;5002798;28;20088;-72
2021/12/06 05:40:35;;;;;;;4.13;3.15;;;11.40;62.10;;;;;;5002685;28;20250;-71
2021/12/06 05:43:03;;;;;;;3.70;2.70;;;11.30;62.00;;;;;;5017688;28;20033;-72
2021/12/06 05:45:31;;;;;;;3.40;2.80;;;11.30;62.10;;;;;;5002651;28;20093;-71
2021/12/06 05:47:57;;;;;;;3.92;2.92;;;11.30;62.00;;;;;;5017679;28;20272;-72
2021/12/06 05:50:24;;;;;;;3.97;2.88;;;11.30;62.10;;;;;;5002481;28;20033;-71
2021/12/06 05:52:52;;;;;;;2.88;2.42;;;11.30;62.00;;;;;;5002507;28;20026;-72
2021/12/06 05:55:19;;;;;;;4.22;3.08;;;11.40;62.00;;;;;;5002342;28;20054;-71
2021/12/06 05:57:45;;;;;;;4.10;3.20;;;11.30;62.00;;;;;;5002407;28;20061;-72
2021/12/06 06:00:14;;;;;;;5.03;3.08;;;11.40;62.10;;;;;;5002361;28;20222;-72
2021/12/06 06:02:41;;;;;;;3.05;2.60;;;11.40;62.10;;;;;;5002429;28;20031;-72
2021/12/06 06:05:08;;;;;;;3.33;2.47;;;11.30;62.00;;;;;;5017317;28;20022;-71
2021/12/06 06:07:34;;;;;;;3.75;2.78;;;11.30;62.10;;;;;;5017216;28;20029;-71
2021/12/06 06:10:00;;;;;;;3.75;2.85;;;11.30;62.20;;;;;;5002181;28;20030;-72
2021/12/06 06:12:26;;;;;;;3.20;2.92;;;11.30;62.10;;;;;;5002148;28;20034;-72
2021/12/06 06:14:53;;;;;;;4.07;3.15;;;11.30;62.00;;;;;;5017127;28;20337;-71
2021/12/06 06:17:19;;;;;;;4.75;3.08;;;11.40;62.10;;;;;;5002128;28;20014;-71
2021/12/06 06:19:51;;;;;;;2.88;2.40;;;11.40;62.10;;;;;;5002277;28;20026;-70
2021/12/06 06:22:17;;;;;;;3.22;2.55;;;11.40;62.10;;;;;;5001923;28;20022;-72
2021/12/06 06:24:42;;;;;;;3.92;2.88;;;11.30;62.00;;;;;;5001915;28;20033;-71
2021/12/06 06:27:08;;;;;;;3.17;2.88;;;11.30;62.10;;;;;;5000722;28;20014;-72
2021/12/06 06:29:35;;;;;;;3.95;2.80;;;11.30;62.10;;;;;;5000621;28;20117;-72
2021/12/06 06:32:01;;;;;;;3.55;2.63;;;11.30;62.20;;;;;;5001855;28;20032;-72
2021/12/06 06:34:27;;;;;;;3.42;3.00;;;11.30;62.10;;;;;;5016822;28;20018;-71
2021/12/06 06:36:54;;;;;;;2.65;2.45;;;11.40;62.10;;;;;;5001693;28;20033;-71
2021/12/06 06:39:21;;;;;;;3.17;2.58;;;11.40;62.00;;;;;;5000238;28;20113;-71
2021/12/06 06:41:51;;;;;;;3.03;2.65;;;11.40;62.10;;;;;;5001568;28;20037;-72
2021/12/06 06:44:17;;;;;;;3.60;2.88;;;11.30;62.00;;;;;;5001545;28;20014;-72
2021/12/06 06:46:45;;;;;;;3.45;2.75;;;11.30;62.00;;;;;;5001518;28;20022;-72
2021/12/06 06:49:12;;;;;;;3.38;2.80;;;11.40;62.20;;;;;;5001489;28;20396;-71
2021/12/06 06:51:37;;;;;;;3.28;2.60;;;11.30;62.10;;;;;;5016497;28;20030;-71
2021/12/06 06:54:04;;;;;;;4.53;3.40;;;11.30;62.00;;;;;;5001165;28;20058;-72
2021/12/06 06:56:30;;;;;;;3.22;2.83;;;11.40;62.10;;;;;;5001361;28;20273;-71
2021/12/06 06:58:56;;;;;;;3.85;3.05;;;11.40;62.10;;;;;;5001349;28;20018;-71
2021/12/06 07:01:23;;;;;;;4.03;2.88;;;11.40;62.10;;;;;;5001164;28;20242;-71
2021/12/06 07:03:53;;;;;;;2.78;2.30;;;11.30;62.00;;;;;;5001185;28;20025;-72
2021/12/06 07:06:20;;;;;;;4.40;3.15;;;11.30;62.10;;;;;;5001189;28;20072;-72
2021/12/06 07:08:46;;;;;;;3.28;2.90;;;11.30;62.20;;;;;;5001153;28;20030;-71
2021/12/06 07:11:12;;;;;;;3.67;2.95;;;11.30;62.20;;;;;;5001030;28;20022;-71
2021/12/06 07:13:39;;;;;;;2.90;2.35;;;11.40;62.80;;;;;;5001043;28;20229;-72
2021/12/06 07:16:08;;;;;;;3.75;2.83;;;11.30;62.20;;;;;;5000998;28;20026;-72
2021/12/06 07:18:35;;;;;;;3.55;2.80;;;11.30;62.10;;;;;;5000881;28;20097;-71
2021/12/06 07:21:00;;;;;;;4.15;3.13;;;11.40;62.20;;;;;;5000873;28;20022;-71
2021/12/06 07:23:26;;;;;;;4.05;3.08;;;11.40;62.10;;;;;;4999503;28;20088;-71
2021/12/06 07:25:52;;;;;;;3.30;2.78;;;11.40;62.10;;;;;;4999582;28;20118;-71
2021/12/06 07:28:18;;;;;;;4.32;2.85;;;11.30;62.20;;;;;;5000760;28;20022;-71
2021/12/06 07:30:44;;;;;;;4.32;3.35;;;11.30;62.20;;;;;;5001011;28;20056;-72
2021/12/06 07:33:10;;;;;;;4.47;3.00;;;11.30;62.10;;;;;;4999371;28;20030;-71
2021/12/06 07:35:36;;;;;;;3.53;2.58;;;11.30;62.10;;;;;;5000547;28;20026;-71
2021/12/06 07:38:05;;;;;;;3.58;2.80;;;11.30;62.10;;;;;;5000600;28;20384;-72
2021/12/06 07:40:31;;;;;;;3.88;2.63;;;11.30;62.10;;;;;;5000502;28;20080;-72
2021/12/06 07:42:57;;;;;;;3.47;2.50;;;11.30;62.70;;;;;;4999095;28;20421;-72
2021/12/06 07:45:24;;;;;;;3.75;2.97;;;11.30;62.10;;;;;;5000432;28;20042;-72
2021/12/06 07:47:50;;;;;;;3.45;2.72;;;11.30;62.10;;;;;;5000406;28;20081;-71
2021/12/06 07:50:19;;;;;;;4.13;2.97;;;11.30;62.10;;;;;;5000064;28;20026;-71
2021/12/06 07:52:45;;;;;;;4.00;2.58;;;11.30;62.10;;;;;;5000223;28;20052;-72
2021/12/06 07:55:13;;;;;;;3.85;2.95;;;11.40;62.10;;;;;;4998883;28;20258;-72
2021/12/06 07:57:40;;;;;;;3.33;2.83;;;11.30;62.00;;;;;;5000362;28;20030;-72
2021/12/06 08:00:15;;;;;;;3.00;2.35;;;11.30;62.00;;;;;;5000319;28;20115;-71
2021/12/06 08:02:41;;;;;;;3.03;2.22;;;11.40;62.00;;;;;;5000126;28;20037;-72
2021/12/06 08:07:53;;;;;;;2.95;2.60;;;11.30;62.00;;;;;;5000162;28;20088;-70
2021/12/06 08:10:18;;;;;;;3.35;2.80;;;11.30;62.00;;;;;;4998824;28;20018;-71
2021/12/06 08:12:44;;;;;;;3.08;2.50;;;11.40;62.00;;;;;;5000047;28;20038;-72
2021/12/06 08:15:10;;;;;;;3.13;2.60;;;11.30;61.90;;;;;;5000091;28;20238;-72
2021/12/06 08:17:36;;;;;;;3.58;2.47;;;11.40;62.00;;;;;;5015065;28;20101;-72
2021/12/06 08:20:05;;;;;;;3.85;3.00;;;11.40;61.90;;;;;;4998771;28;20022;-71
2021/12/06 08:22:31;;;;;;;3.58;2.72;;;11.40;62.00;;;;;;5014985;28;20030;-72
2021/12/06 08:24:57;;;;;;;3.00;2.63;;;11.40;62.00;;;;;;4999978;28;20045;-72
2021/12/06 08:27:23;;;;;;;3.65;2.88;;;11.40;62.00;;;;;;4999904;28;20027;-72
2021/12/06 08:29:49;;;;;;;3.25;2.90;;;11.40;62.00;;;;;;4999890;28;20026;-72
2021/12/06 08:32:15;;;;;;;3.45;3.15;;;11.40;62.00;;;;;;4999792;28;20031;-72
2021/12/06 08:34:41;;;;;;;3.67;2.72;;;11.40;61.90;;;;;;4999916;28;20034;-71
2021/12/06 08:37:08;;;;;;;4.15;3.15;;;11.40;61.90;;;;;;5014868;28;20018;-72
2021/12/06 08:39:35;;;;;;;3.08;2.78;;;11.40;61.80;;;;;;5014982;28;20098;-72
2021/12/06 08:42:00;;;;;;;3.88;2.85;;;11.40;61.90;;;;;;4999738;28;20033;-72
2021/12/06 08:44:26;;;;;;;2.92;2.47;;;11.40;61.90;;;;;;4998537;28;20097;-72
2021/12/06 08:46:52;;;;;;;4.53;3.00;;;11.40;61.90;;;;;;4998644;28;20027;-72
2021/12/06 08:49:18;;;;;;;3.67;2.72;;;11.40;61.90;;;;;;4999724;28;20033;-71
2021/12/06 08:51:47;;;;;;;4.15;3.03;;;11.40;61.80;;;;;;4999755;28;20281;-71
2021/12/06 08:54:22;;;;;;;3.13;2.60;;;11.40;61.80;;;;;;4999537;28;20046;-73
2021/12/06 08:56:49;;;;;;;2.90;2.60;;;11.40;61.70;;;;;;5014764;28;20030;-71
2021/12/06 08:59:15;;;;;;;3.38;2.67;;;11.40;61.70;;;;;;5014805;28;20034;-72
2021/12/06 09:01:41;;;;;;;3.22;2.75;;;11.40;61.70;;;;;;5000930;28;20034;-71
2021/12/06 09:04:11;;;;;;;3.85;3.22;;;11.40;61.70;;;;;;5003459;28;20054;-72
2021/12/06 09:06:40;;;;;;;3.25;2.65;;;11.40;61.80;;;;;;5003429;28;20209;-72
2021/12/06 09:09:09;;;;;;;3.67;2.70;;;11.40;61.80;;;;;;5003402;28;20029;-71
2021/12/06 09:11:36;;;;;;;3.30;2.88;;;11.40;61.80;;;;;;5002094;28;20033;-72
2021/12/06 09:14:02;;;;;;;4.25;3.22;;;11.40;61.70;;;;;;5001967;28;20210;-71
2021/12/06 09:16:28;;;;;;;3.35;2.63;;;11.40;61.70;;;;;;5003223;28;20314;-72
2021/12/06 09:18:53;;;;;;;2.70;2.33;;;11.50;62.30;;;;;;5003115;28;20074;-71
2021/12/06 09:21:23;;;;;;;3.58;2.80;;;11.50;61.70;;;;;;5003134;28;20049;-71
2021/12/06 09:23:52;;;;;;;3.30;2.95;;;11.40;61.60;;;;;;5003141;28;20088;-72
2021/12/06 09:26:17;;;;;;;4.13;2.80;;;11.50;61.70;;;;;;5001733;28;20018;-71
2021/12/06 09:28:44;;;;;;;2.80;2.53;;;11.50;61.70;;;;;;5003021;28;20089;-72
2021/12/06 09:31:10;;;;;;;3.78;2.92;;;11.40;61.60;;;;;;5003004;28;20043;-72
2021/12/06 09:33:38;;;;;;;2.95;2.58;;;11.50;61.70;;;;;;5002905;28;20318;-72
2021/12/06 09:36:06;;;;;;;3.43;2.53;;;11.50;61.70;;;;;;5003167;28;20106;-72
2021/12/06 09:38:37;;;;;;;3.00;2.63;;;11.50;61.70;;;;;;5017922;28;20260;-71
2021/12/06 09:41:07;;;;;;;3.22;2.50;;;11.40;61.60;;;;;;5002814;28;20060;-72
2021/12/06 09:43:38;;;;;;;2.92;2.53;;;11.50;61.70;;;;;;5002723;28;20222;-72
2021/12/06 09:46:05;;;;;;;3.20;2.53;;;11.40;61.70;;;;;;5002696;28;20298;-71
2021/12/06 09:48:31;;;;;;;3.17;2.88;;;11.40;61.60;;;;;;5002666;28;20326;-73
2021/12/06 09:51:00;;;;;;;3.00;2.55;;;11.50;61.60;;;;;;5002680;28;20018;-71
2021/12/06 09:53:29;;;;;;;3.20;2.55;;;11.50;61.60;;;;;;5002382;28;20043;-71
2021/12/06 09:56:01;;;;;;;3.60;2.67;;;11.50;61.60;;;;;;5001282;28;20344;-71
2021/12/06 09:58:30;;;;;;;3.75;2.80;;;11.50;61.60;;;;;;5002510;28;20025;-71
2021/12/06 10:00:59;;;;;;;3.63;2.72;;;11.50;61.60;;;;;;5002414;28;20041;-72
2021/12/06 10:03:29;;;;;;;3.13;2.50;;;11.50;61.60;;;;;;5002337;28;20030;-71
2021/12/06 10:06:01;;;;;;;3.38;2.55;;;11.50;61.60;;;;;;5002291;28;20029;-72
2021/12/06 10:08:31;;;;;;;4.20;2.95;;;11.50;61.60;;;;;;5002234;28;20022;-72
2021/12/06 10:10:57;;;;;;;3.38;2.75;;;11.50;61.60;;;;;;5002255;28;20033;-72
2021/12/06 10:13:24;;;;;;;3.75;3.10;;;11.50;61.60;;;;;;5016688;28;20057;-72
2021/12/06 10:15:52;;;;;;;3.33;2.83;;;11.50;61.50;;;;;;5002224;28;20057;-71
2021/12/06 10:18:20;;;;;;;3.57;3.10;;;11.50;61.50;;;;;;5002192;28;20030;-71
2021/12/06 10:20:47;;;;;;;3.08;2.50;;;11.50;61.60;;;;;;5001058;28;20267;-72
2021/12/06 10:23:14;;;;;;;2.88;2.58;;;11.50;61.60;;;;;;5001996;28;20022;-71
2021/12/06 10:25:46;;;;;;;3.22;2.58;;;11.50;61.70;;;;;;5001934;28;20060;-72
2021/12/06 10:28:14;;;;;;;3.17;2.58;;;11.50;61.70;;;;;;5017008;28;20093;-71
2021/12/06 10:30:45;;;;;;;3.05;2.63;;;11.50;61.70;;;;;;5016922;28;20057;-71
2021/12/06 10:33:14;;;;;;;4.22;3.10;;;11.50;61.60;;;;;;5001891;28;20023;-72
2021/12/06 10:35:44;;;;;;;3.40;2.40;;;11.50;61.60;;;;;;5016887;28;20283;-71
2021/12/06 10:38:10;;;;;;;3.50;2.50;;;11.50;61.60;;;;;;5001795;28;20034;-72
2021/12/06 10:40:40;;;;;;;3.22;2.72;;;11.50;61.60;;;;;;5016785;28;20226;-70
2021/12/06 10:43:10;;;;;;;3.72;2.50;;;11.50;61.60;;;;;;5001553;28;20030;-73
2021/12/06 10:45:47;;;;;;;3.22;2.80;;;11.50;61.60;;;;;;5001565;28;20028;-72
2021/12/06 10:48:26;;;;;;;3.17;2.55;;;11.50;61.60;;;;;;5001598;28;20085;-73
2021/12/06 10:50:52;;;;;;;2.75;2.42;;;11.50;61.60;;;;;;5001516;28;20293;-72
2021/12/06 10:53:20;;;;;;;3.13;2.63;;;11.50;61.60;;;;;;5001298;28;20058;-71
2021/12/06 10:55:48;;;;;;;3.10;2.65;;;11.50;61.60;;;;;;5001452;28;20026;-71
2021/12/06 10:58:18;;;;;;;3.77;2.83;;;11.50;61.60;;;;;;5001440;28;20094;-71
2021/12/06 11:00:54;;;;;;;3.17;2.60;;;11.50;61.70;;;;;;5016431;28;20252;-71
2021/12/06 11:03:45;;;;;;;3.13;2.47;;;11.50;61.70;;;;;;5001231;28;20072;-72
2021/12/06 11:06:19;;;;;;;2.85;2.45;;;11.50;61.70;;;;;;5000041;28;20072;-72
2021/12/06 11:08:47;;;;;;;3.28;2.40;;;11.50;61.70;;;;;;5001136;28;20249;-71
2021/12/06 11:11:20;;;;;;;2.83;2.53;;;11.50;61.60;;;;;;5001126;28;20029;-71
2021/12/06 11:13:50;;;;;;;4.22;2.85;;;11.50;61.60;;;;;;5001091;28;20022;-70
2021/12/06 11:16:19;;;;;;;3.28;2.60;;;11.50;61.50;;;;;;5001007;28;20022;-71
2021/12/06 11:18:49;;;;;;;2.70;2.28;;;11.50;61.50;;;;;;5000971;28;20085;-72
2021/12/06 11:21:18;;;;;;;4.00;2.92;;;11.50;61.50;;;;;;5001137;28;20030;-72
2021/12/06 11:24:24;;;;;;;2.42;2.22;;;11.50;61.50;;;;;;5000749;28;20033;-71
2021/12/06 11:26:59;;;;;;;4.63;3.10;;;11.50;61.50;;;;;;4997256;28;20049;-71
2021/12/06 11:29:39;;;;;;;3.00;2.35;;;11.50;61.60;;;;;;5000753;28;20027;-71
2021/12/06 11:32:28;;;;;;;3.17;2.25;;;11.50;61.60;;;;;;5000701;28;20022;-72
2021/12/06 11:35:06;;;;;;;2.78;2.35;;;11.50;61.60;;;;;;4999468;28;20322;-71
2021/12/06 11:37:46;;;;;;;3.35;2.72;;;11.50;61.60;;;;;;5000599;28;20056;-74
2021/12/06 11:40:13;;;;;;;3.30;2.92;;;11.50;61.50;;;;;;4999255;28;20026;-71
2021/12/06 11:43:05;;;;;;;3.30;2.58;;;11.50;61.50;;;;;;4999191;28;20438;-71
2021/12/06 11:45:35;;;;;;;3.10;2.30;;;11.50;61.60;;;;;;5015570;28;20022;-71
2021/12/06 11:48:10;;;;;;;3.38;2.47;;;11.50;61.60;;;;;;5000421;28;20018;-71
2021/12/06 11:50:47;;;;;;;2.83;2.25;;;11.50;61.50;;;;;;5000449;28;20525;-72
2021/12/06 11:53:17;;;;;;;2.92;2.47;;;11.50;61.50;;;;;;5000248;28;20037;-72
2021/12/06 11:55:52;;;;;;;2.30;2.10;;;11.50;61.40;;;;;;5000304;28;20030;-72
2021/12/06 11:58:31;;;;;;;3.00;2.28;;;11.60;61.50;;;;;;5000368;28;20022;-71
2021/12/06 12:01:16;;;;;;;3.00;2.55;;;11.50;61.50;;;;;;5000319;28;20026;-71
2021/12/06 12:03:46;;;;;;;2.70;2.13;;;11.50;61.50;;;;;;5000151;28;20022;-71
2021/12/06 12:06:29;;;;;;;2.63;2.33;;;11.50;61.50;;;;;;5000211;28;20014;-72
2021/12/06 12:09:25;;;;;;;4.63;2.88;;;11.50;61.50;;;;;;5014853;28;20218;-72
2021/12/06 12:12:15;;;;;;;2.72;2.38;;;11.60;61.60;;;;;;5000154;28;20033;-71
2021/12/06 12:14:57;;;;;;;2.92;2.42;;;11.50;61.60;;;;;;5015203;28;20130;-71
2021/12/06 12:17:28;;;;;;;3.67;2.83;;;11.50;61.50;;;;;;5000127;28;20069;-71
2021/12/06 12:19:57;;;;;;;2.55;2.35;;;11.50;61.50;;;;;;5000015;28;20060;-71
2021/12/06 12:22:25;;;;;;;3.05;2.45;;;11.50;61.40;;;;;;5014996;28;20034;-71
2021/12/06 12:24:56;;;;;;;2.45;2.25;;;11.50;61.50;;;;;;4998679;28;20095;-71
2021/12/06 12:27:35;;;;;;;2.88;2.33;;;11.50;61.50;;;;;;4999959;28;20010;-72
2021/12/06 12:30:04;;;;;;;3.20;2.58;;;11.50;61.40;;;;;;4998746;28;20046;-72
2021/12/06 12:32:31;;;;;;;3.30;2.60;;;11.50;61.40;;;;;;4999786;28;20069;-72
2021/12/06 12:35:06;;;;;;;3.90;2.83;;;11.50;61.50;;;;;;4999931;28;20018;-71
2021/12/06 12:37:35;;;;;;;3.45;2.60;;;11.50;61.50;;;;;;5002737;28;20021;-72
2021/12/06 12:40:10;;;;;;;2.75;2.55;;;11.50;61.50;;;;;;5002688;28;20389;-72
2021/12/06 12:42:37;;;;;;;3.08;2.40;;;11.50;61.50;;;;;;5003834;28;20041;-72
2021/12/06 12:45:06;;;;;;;3.20;2.55;;;11.50;61.50;;;;;;5003865;28;20313;-72
2021/12/06 12:47:34;;;;;;;2.50;2.25;;;11.50;61.50;;;;;;5018894;28;20248;-72
2021/12/06 12:50:14;;;;;;;3.47;2.60;;;11.50;61.40;;;;;;5018861;28;20041;-72
2021/12/06 12:52:48;;;;;;;3.45;2.55;;;11.50;61.50;;;;;;5003753;28;20072;-72
2021/12/06 12:55:31;;;;;;;2.60;2.40;;;11.50;61.50;;;;;;5002096;28;20050;-72
2021/12/06 12:58:20;;;;;;;2.40;2.20;;;11.50;61.40;;;;;;5003586;28;20042;-71
2021/12/06 13:00:58;;;;;;;;;;;11.50;61.40;;;;;;5002837;28;20029;-70
2021/12/06 13:03:43;;;;;;;2.53;2.33;;;11.50;61.50;;;;;;5003490;28;20320;-71
2021/12/06 13:06:18;;;;;;;2.35;2.15;;;11.50;61.50;;;;;;5003514;28;20251;-72
2021/12/06 13:08:46;;;;;;;3.00;2.53;;;11.50;61.40;;;;;;5003462;28;20085;-71
2021/12/06 13:11:12;;;;;;;3.08;2.40;;;11.50;61.40;;;;;;5003395;28;20045;-71
2021/12/06 13:13:45;;;;;;;3.30;2.28;;;11.50;61.50;;;;;;5003350;28;20136;-70